sensor_id;sensor_type;location;lat;lon;timestamp;noise_LAeq;noise_LA_min;noise_LA_max;noise_LA01;noise_LA95
69614;Laerm;57159;52.472;4.750;2023-02-26T00:00:08;32.15;31.23;33.02;;
69614;Laerm;57159;52.472;4.750;2023-02-26T00:00:22;32.13;31.16;32.99;;
69614;Laerm;57159;52.472;4.750;2023-02-26T00:00:33;32.10;31.14;33.03;;
69614;Laerm;57159;52.472;4.750;2023-02-26T00:00:43;32.08;31.04;32.93;;
69614;Laerm;57159;52.472;4.750;2023-02-26T00:00:57;32.08;31.20;33.12;;
69614;Laerm;57159;52.472;4.750;2023-02-26T00:01:13;32.07;30.94;32.72;;
69614;Laerm;57159;52.472;4.750;2023-02-26T00:01:28;32.06;30.81;32.99;;
69614;Laerm;57159;52.472;4.750;2023-02-26T00:01:39;32.04;30.99;32.97;;
69614;Laerm;57159;52.472;4.750;2023-02-26T00:01:49;32.04;30.94;32.89;;
69614;Laerm;57159;52.472;4.750;2023-02-26T00:01:59;32.07;31.15;33.05;;
69614;Laerm;57159;52.472;4.750;2023-02-26T00:02:12;32.02;31.09;33.06;;
69614;Laerm;57159;52.472;4.750;2023-02-26T00:02:22;32.00;31.18;33.18;;
69614;Laerm;57159;52.472;4.750;2023-02-26T00:02:35;32.00;31.03;33.00;;
69614;Laerm;57159;52.472;4.750;2023-02-26T00:02:46;31.99;31.20;33.34;;
69614;Laerm;57159;52.472;4.750;2023-02-26T00:02:58;31.99;30.92;32.79;;
69614;Laerm;57159;52.472;4.750;2023-02-26T00:03:08;31.98;30.89;32.86;;
69614;Laerm;57159;52.472;4.750;2023-02-26T00:03:18;31.98;31.05;33.21;;
69614;Laerm;57159;52.472;4.750;2023-02-26T00:03:29;31.94;31.02;32.76;;
69614;Laerm;57159;52.472;4.750;2023-02-26T00:03:39;32.00;30.96;32.85;;
69614;Laerm;57159;52.472;4.750;2023-02-26T00:03:50;31.97;31.09;33.03;;
69614;Laerm;57159;52.472;4.750;2023-02-26T00:04:02;31.95;30.90;32.99;;
69614;Laerm;57159;52.472;4.750;2023-02-26T00:04:13;31.95;30.97;32.81;;
69614;Laerm;57159;52.472;4.750;2023-02-26T00:04:23;31.93;30.95;32.74;;
69614;Laerm;57159;52.472;4.750;2023-02-26T00:04:33;31.93;30.79;32.81;;
69614;Laerm;57159;52.472;4.750;2023-02-26T00:04:44;31.96;30.95;32.80;;
69614;Laerm;57159;52.472;4.750;2023-02-26T00:04:54;31.94;31.13;32.84;;
69614;Laerm;57159;52.472;4.750;2023-02-26T00:05:05;31.93;30.67;33.00;;
69614;Laerm;57159;52.472;4.750;2023-02-26T00:05:15;31.93;30.93;33.06;;
69614;Laerm;57159;52.472;4.750;2023-02-26T00:05:26;31.91;31.08;32.83;;
69614;Laerm;57159;52.472;4.750;2023-02-26T00:05:37;31.91;30.97;32.99;;
69614;Laerm;57159;52.472;4.750;2023-02-26T00:05:48;31.92;30.94;32.89;;
69614;Laerm;57159;52.472;4.750;2023-02-26T00:05:59;31.93;31.22;33.00;;
69614;Laerm;57159;52.472;4.750;2023-02-26T00:06:10;31.91;30.92;32.72;;
69614;Laerm;57159;52.472;4.750;2023-02-26T00:06:21;31.93;30.83;32.71;;
69614;Laerm;57159;52.472;4.750;2023-02-26T00:06:33;31.90;30.88;32.93;;
69614;Laerm;57159;52.472;4.750;2023-02-26T00:06:43;31.92;30.99;32.86;;
69614;Laerm;57159;52.472;4.750;2023-02-26T00:07:03;31.91;30.89;33.00;;
69614;Laerm;57159;52.472;4.750;2023-02-26T00:07:15;32.01;31.05;32.97;;
69614;Laerm;57159;52.472;4.750;2023-02-26T00:07:25;32.04;30.77;33.06;;
69614;Laerm;57159;52.472;4.750;2023-02-26T00:07:38;32.04;30.95;32.91;;
69614;Laerm;57159;52.472;4.750;2023-02-26T00:07:49;31.92;31.07;32.64;;
69614;Laerm;57159;52.472;4.750;2023-02-26T00:07:59;31.92;30.78;32.88;;
69614;Laerm;57159;52.472;4.750;2023-02-26T00:08:09;31.91;30.89;32.77;;
69614;Laerm;57159;52.472;4.750;2023-02-26T00:08:19;31.96;30.90;32.92;;
69614;Laerm;57159;52.472;4.750;2023-02-26T00:08:30;31.93;30.71;32.69;;
69614;Laerm;57159;52.472;4.750;2023-02-26T00:08:40;31.94;30.85;32.81;;
69614;Laerm;57159;52.472;4.750;2023-02-26T00:08:50;31.89;30.96;32.91;;
69614;Laerm;57159;52.472;4.750;2023-02-26T00:09:01;31.94;30.82;32.79;;
69614;Laerm;57159;52.472;4.750;2023-02-26T00:09:12;31.91;30.96;32.84;;
69614;Laerm;57159;52.472;4.750;2023-02-26T00:09:23;31.87;30.84;32.86;;
69614;Laerm;57159;52.472;4.750;2023-02-26T00:09:33;31.89;30.91;32.66;;
69614;Laerm;57159;52.472;4.750;2023-02-26T00:09:43;31.86;30.93;32.88;;
69614;Laerm;57159;52.472;4.750;2023-02-26T00:09:54;31.89;31.03;32.81;;
69614;Laerm;57159;52.472;4.750;2023-02-26T00:10:05;31.91;30.79;32.90;;
69614;Laerm;57159;52.472;4.750;2023-02-26T00:10:15;31.87;30.98;32.78;;
69614;Laerm;57159;52.472;4.750;2023-02-26T00:10:26;31.91;30.87;32.78;;
69614;Laerm;57159;52.472;4.750;2023-02-26T00:10:36;31.90;30.74;32.90;;
69614;Laerm;57159;52.472;4.750;2023-02-26T00:10:46;31.89;31.04;32.78;;
69614;Laerm;57159;52.472;4.750;2023-02-26T00:10:57;31.90;30.72;32.90;;
69614;Laerm;57159;52.472;4.750;2023-02-26T00:11:11;31.89;30.88;32.74;;
69614;Laerm;57159;52.472;4.750;2023-02-26T00:11:21;31.86;30.73;32.71;;
69614;Laerm;57159;52.472;4.750;2023-02-26T00:11:32;31.86;30.81;32.87;;
69614;Laerm;57159;52.472;4.750;2023-02-26T00:11:42;31.91;30.99;32.71;;
69614;Laerm;57159;52.472;4.750;2023-02-26T00:11:53;31.89;30.81;32.88;;
69614;Laerm;57159;52.472;4.750;2023-02-26T00:12:03;31.86;30.84;32.89;;
69614;Laerm;57159;52.472;4.750;2023-02-26T00:12:13;31.82;30.92;32.73;;
69614;Laerm;57159;52.472;4.750;2023-02-26T00:12:24;31.86;30.61;32.60;;
69614;Laerm;57159;52.472;4.750;2023-02-26T00:12:34;31.87;30.47;32.72;;
69614;Laerm;57159;52.472;4.750;2023-02-26T00:12:45;31.89;30.89;32.84;;
69614;Laerm;57159;52.472;4.750;2023-02-26T00:12:56;31.86;31.01;32.69;;
69614;Laerm;57159;52.472;4.750;2023-02-26T00:13:07;31.87;31.13;32.75;;
69614;Laerm;57159;52.472;4.750;2023-02-26T00:13:18;31.87;30.90;32.71;;
69614;Laerm;57159;52.472;4.750;2023-02-26T00:13:28;31.87;30.85;32.83;;
69614;Laerm;57159;52.472;4.750;2023-02-26T00:13:39;31.86;30.87;32.82;;
69614;Laerm;57159;52.472;4.750;2023-02-26T00:13:50;31.84;30.61;33.06;;
69614;Laerm;57159;52.472;4.750;2023-02-26T00:14:00;31.85;31.00;32.67;;
69614;Laerm;57159;52.472;4.750;2023-02-26T00:14:12;31.88;30.60;32.95;;
69614;Laerm;57159;52.472;4.750;2023-02-26T00:14:23;31.87;30.47;32.92;;
69614;Laerm;57159;52.472;4.750;2023-02-26T00:14:33;31.89;30.99;33.27;;
69614;Laerm;57159;52.472;4.750;2023-02-26T00:14:44;31.89;30.73;32.87;;
69614;Laerm;57159;52.472;4.750;2023-02-26T00:14:55;31.90;30.97;32.82;;
69614;Laerm;57159;52.472;4.750;2023-02-26T00:15:05;31.93;31.14;32.76;;
69614;Laerm;57159;52.472;4.750;2023-02-26T00:15:17;31.83;30.49;32.84;;
69614;Laerm;57159;52.472;4.750;2023-02-26T00:15:28;31.83;31.01;32.68;;
69614;Laerm;57159;52.472;4.750;2023-02-26T00:15:38;31.86;30.98;32.96;;
69614;Laerm;57159;52.472;4.750;2023-02-26T00:15:49;31.91;30.99;33.01;;
69614;Laerm;57159;52.472;4.750;2023-02-26T00:16:02;31.92;30.92;32.82;;
69614;Laerm;57159;52.472;4.750;2023-02-26T00:16:29;31.88;30.95;32.81;;
69614;Laerm;57159;52.472;4.750;2023-02-26T00:16:39;31.87;30.78;32.81;;
69614;Laerm;57159;52.472;4.750;2023-02-26T00:17:12;31.90;30.99;32.91;;
69614;Laerm;57159;52.472;4.750;2023-02-26T00:18:14;31.88;30.84;33.06;;
69614;Laerm;57159;52.472;4.750;2023-02-26T00:18:25;31.89;30.62;32.82;;
69614;Laerm;57159;52.472;4.750;2023-02-26T00:18:35;31.92;30.87;32.81;;
69614;Laerm;57159;52.472;4.750;2023-02-26T00:18:46;31.89;31.03;32.94;;
69614;Laerm;57159;52.472;4.750;2023-02-26T00:18:56;31.89;30.98;32.73;;
69614;Laerm;57159;52.472;4.750;2023-02-26T00:19:07;31.92;30.95;32.78;;
69614;Laerm;57159;52.472;4.750;2023-02-26T00:19:20;31.93;30.88;32.93;;
69614;Laerm;57159;52.472;4.750;2023-02-26T00:19:31;31.94;30.78;32.74;;
69614;Laerm;57159;52.472;4.750;2023-02-26T00:19:41;31.93;30.97;32.98;;
69614;Laerm;57159;52.472;4.750;2023-02-26T00:19:54;31.90;31.06;32.63;;
69614;Laerm;57159;52.472;4.750;2023-02-26T00:20:05;31.89;30.91;32.89;;
69614;Laerm;57159;52.472;4.750;2023-02-26T00:20:16;31.89;30.83;32.81;;
69614;Laerm;57159;52.472;4.750;2023-02-26T00:20:26;31.86;30.89;32.75;;
69614;Laerm;57159;52.472;4.750;2023-02-26T00:20:37;31.85;30.86;32.82;;
69614;Laerm;57159;52.472;4.750;2023-02-26T00:20:47;31.85;30.89;32.90;;
69614;Laerm;57159;52.472;4.750;2023-02-26T00:20:58;31.82;30.64;32.76;;
69614;Laerm;57159;52.472;4.750;2023-02-26T00:21:13;31.87;31.03;32.67;;
69614;Laerm;57159;52.472;4.750;2023-02-26T00:21:24;31.88;30.84;33.00;;
69614;Laerm;57159;52.472;4.750;2023-02-26T00:21:35;31.88;30.75;32.85;;
69614;Laerm;57159;52.472;4.750;2023-02-26T00:21:49;31.90;30.73;32.73;;
69614;Laerm;57159;52.472;4.750;2023-02-26T00:21:59;31.92;30.71;33.10;;
69614;Laerm;57159;52.472;4.750;2023-02-26T00:22:10;31.92;30.61;32.74;;
69614;Laerm;57159;52.472;4.750;2023-02-26T00:22:20;31.98;31.12;32.87;;
69614;Laerm;57159;52.472;4.750;2023-02-26T00:22:30;31.97;30.84;32.97;;
69614;Laerm;57159;52.472;4.750;2023-02-26T00:22:41;31.92;30.70;33.17;;
69614;Laerm;57159;52.472;4.750;2023-02-26T00:22:51;31.93;30.85;32.73;;
69614;Laerm;57159;52.472;4.750;2023-02-26T00:23:02;31.87;31.03;32.78;;
69614;Laerm;57159;52.472;4.750;2023-02-26T00:23:12;31.86;30.93;32.95;;
69614;Laerm;57159;52.472;4.750;2023-02-26T00:23:23;31.90;30.79;32.98;;
69614;Laerm;57159;52.472;4.750;2023-02-26T00:23:34;31.88;30.76;32.64;;
69614;Laerm;57159;52.472;4.750;2023-02-26T00:23:44;31.86;30.81;32.78;;
69614;Laerm;57159;52.472;4.750;2023-02-26T00:23:55;31.84;30.44;32.69;;
69614;Laerm;57159;52.472;4.750;2023-02-26T00:24:05;31.85;30.77;32.80;;
69614;Laerm;57159;52.472;4.750;2023-02-26T00:24:17;31.87;31.05;32.76;;
69614;Laerm;57159;52.472;4.750;2023-02-26T00:24:27;31.86;31.09;32.77;;
69614;Laerm;57159;52.472;4.750;2023-02-26T00:24:37;31.87;30.92;32.67;;
69614;Laerm;57159;52.472;4.750;2023-02-26T00:24:47;31.85;30.91;32.61;;
69614;Laerm;57159;52.472;4.750;2023-02-26T00:24:58;31.86;30.99;32.93;;
69614;Laerm;57159;52.472;4.750;2023-02-26T00:25:08;31.96;30.97;32.90;;
69614;Laerm;57159;52.472;4.750;2023-02-26T00:25:19;32.14;31.14;33.02;;
69614;Laerm;57159;52.472;4.750;2023-02-26T00:25:29;32.11;31.25;33.07;;
69614;Laerm;57159;52.472;4.750;2023-02-26T00:25:40;31.89;30.66;32.89;;
69614;Laerm;57159;52.472;4.750;2023-02-26T00:25:50;31.92;30.95;32.99;;
69614;Laerm;57159;52.472;4.750;2023-02-26T00:26:00;31.88;30.96;32.76;;
69614;Laerm;57159;52.472;4.750;2023-02-26T00:26:11;31.82;30.89;32.60;;
69614;Laerm;57159;52.472;4.750;2023-02-26T00:26:22;31.85;30.67;33.14;;
69614;Laerm;57159;52.472;4.750;2023-02-26T00:26:32;31.86;30.92;32.79;;
69614;Laerm;57159;52.472;4.750;2023-02-26T00:26:43;31.86;30.70;33.30;;
69614;Laerm;57159;52.472;4.750;2023-02-26T00:26:53;31.88;30.82;33.05;;
69614;Laerm;57159;52.472;4.750;2023-02-26T00:27:04;31.87;30.99;32.81;;
69614;Laerm;57159;52.472;4.750;2023-02-26T00:27:14;31.85;30.90;32.83;;
69614;Laerm;57159;52.472;4.750;2023-02-26T00:27:24;31.85;30.79;32.88;;
69614;Laerm;57159;52.472;4.750;2023-02-26T00:27:35;31.85;30.84;32.71;;
69614;Laerm;57159;52.472;4.750;2023-02-26T00:27:46;31.82;30.86;32.81;;
69614;Laerm;57159;52.472;4.750;2023-02-26T00:27:56;31.85;30.82;32.83;;
69614;Laerm;57159;52.472;4.750;2023-02-26T00:28:07;31.87;31.00;32.73;;
69614;Laerm;57159;52.472;4.750;2023-02-26T00:28:17;31.86;31.09;32.76;;
69614;Laerm;57159;52.472;4.750;2023-02-26T00:28:28;31.86;30.60;32.73;;
69614;Laerm;57159;52.472;4.750;2023-02-26T00:28:39;31.85;30.95;32.88;;
69614;Laerm;57159;52.472;4.750;2023-02-26T00:28:49;31.84;30.95;32.78;;
69614;Laerm;57159;52.472;4.750;2023-02-26T00:29:00;31.84;31.02;32.64;;
69614;Laerm;57159;52.472;4.750;2023-02-26T00:29:11;31.85;30.90;32.70;;
69614;Laerm;57159;52.472;4.750;2023-02-26T00:29:21;31.88;30.74;32.93;;
69614;Laerm;57159;52.472;4.750;2023-02-26T00:29:31;31.86;30.89;32.71;;
69614;Laerm;57159;52.472;4.750;2023-02-26T00:29:42;31.83;30.88;32.76;;
69614;Laerm;57159;52.472;4.750;2023-02-26T00:29:53;31.82;30.91;32.76;;
69614;Laerm;57159;52.472;4.750;2023-02-26T00:30:04;31.81;30.77;33.22;;
69614;Laerm;57159;52.472;4.750;2023-02-26T00:30:15;31.86;30.92;32.71;;
69614;Laerm;57159;52.472;4.750;2023-02-26T00:30:25;31.85;31.09;32.77;;
69614;Laerm;57159;52.472;4.750;2023-02-26T00:30:36;31.83;30.95;32.69;;
69614;Laerm;57159;52.472;4.750;2023-02-26T00:30:47;31.85;30.92;32.81;;
69614;Laerm;57159;52.472;4.750;2023-02-26T00:30:57;31.82;30.90;32.57;;
69614;Laerm;57159;52.472;4.750;2023-02-26T00:31:08;31.84;30.55;32.74;;
69614;Laerm;57159;52.472;4.750;2023-02-26T00:31:18;31.81;30.83;32.88;;
69614;Laerm;57159;52.472;4.750;2023-02-26T00:31:34;31.85;30.92;32.76;;
69614;Laerm;57159;52.472;4.750;2023-02-26T00:31:45;31.83;30.92;32.74;;
69614;Laerm;57159;52.472;4.750;2023-02-26T00:31:55;31.84;30.78;32.80;;
69614;Laerm;57159;52.472;4.750;2023-02-26T00:32:06;31.84;30.95;32.73;;
69614;Laerm;57159;52.472;4.750;2023-02-26T00:32:16;31.82;30.99;32.96;;
69614;Laerm;57159;52.472;4.750;2023-02-26T00:32:29;31.83;30.79;32.62;;
69614;Laerm;57159;52.472;4.750;2023-02-26T00:32:40;31.85;30.78;32.81;;
69614;Laerm;57159;52.472;4.750;2023-02-26T00:32:51;31.82;30.89;32.75;;
69614;Laerm;57159;52.472;4.750;2023-02-26T00:33:01;31.83;30.97;32.61;;
69614;Laerm;57159;52.472;4.750;2023-02-26T00:33:12;31.84;30.53;32.74;;
69614;Laerm;57159;52.472;4.750;2023-02-26T00:33:23;31.84;30.90;32.72;;
69614;Laerm;57159;52.472;4.750;2023-02-26T00:33:33;31.83;30.99;32.67;;
69614;Laerm;57159;52.472;4.750;2023-02-26T00:33:43;31.86;31.04;32.76;;
69614;Laerm;57159;52.472;4.750;2023-02-26T00:33:55;31.83;30.84;32.75;;
69614;Laerm;57159;52.472;4.750;2023-02-26T00:34:09;31.89;30.86;32.97;;
69614;Laerm;57159;52.472;4.750;2023-02-26T00:34:20;31.92;31.05;32.90;;
69614;Laerm;57159;52.472;4.750;2023-02-26T00:34:31;31.87;30.64;32.64;;
69614;Laerm;57159;52.472;4.750;2023-02-26T00:34:43;31.87;30.83;32.77;;
69614;Laerm;57159;52.472;4.750;2023-02-26T00:34:53;31.87;31.05;32.81;;
69614;Laerm;57159;52.472;4.750;2023-02-26T00:35:07;31.86;30.93;32.79;;
69614;Laerm;57159;52.472;4.750;2023-02-26T00:35:18;31.86;30.92;32.70;;
69614;Laerm;57159;52.472;4.750;2023-02-26T00:35:28;31.85;31.14;32.62;;
69614;Laerm;57159;52.472;4.750;2023-02-26T00:35:39;31.84;30.95;32.76;;
69614;Laerm;57159;52.472;4.750;2023-02-26T00:35:50;31.84;30.82;32.93;;
69614;Laerm;57159;52.472;4.750;2023-02-26T00:36:18;31.87;30.91;33.02;;
69614;Laerm;57159;52.472;4.750;2023-02-26T00:36:39;31.86;30.86;32.84;;
69614;Laerm;57159;52.472;4.750;2023-02-26T00:36:54;31.88;30.89;32.83;;
69614;Laerm;57159;52.472;4.750;2023-02-26T00:38:08;31.85;30.83;33.02;;
69614;Laerm;57159;52.472;4.750;2023-02-26T00:38:19;31.85;30.95;32.67;;
69614;Laerm;57159;52.472;4.750;2023-02-26T00:38:30;31.86;30.85;32.77;;
69614;Laerm;57159;52.472;4.750;2023-02-26T00:38:42;31.90;30.94;32.93;;
69614;Laerm;57159;52.472;4.750;2023-02-26T00:39:20;31.87;30.85;32.74;;
69614;Laerm;57159;52.472;4.750;2023-02-26T00:40:07;31.84;30.89;32.85;;
69614;Laerm;57159;52.472;4.750;2023-02-26T00:40:51;31.87;30.96;32.98;;
69614;Laerm;57159;52.472;4.750;2023-02-26T00:41:03;31.88;30.85;32.83;;
69614;Laerm;57159;52.472;4.750;2023-02-26T00:41:14;31.84;30.95;32.69;;
69614;Laerm;57159;52.472;4.750;2023-02-26T00:41:25;31.85;30.83;32.95;;
69614;Laerm;57159;52.472;4.750;2023-02-26T00:41:35;31.85;30.85;32.81;;
69614;Laerm;57159;52.472;4.750;2023-02-26T00:41:48;31.83;30.80;32.71;;
69614;Laerm;57159;52.472;4.750;2023-02-26T00:42:01;31.83;30.92;32.90;;
69614;Laerm;57159;52.472;4.750;2023-02-26T00:42:12;31.84;30.97;32.81;;
69614;Laerm;57159;52.472;4.750;2023-02-26T00:42:22;31.84;30.92;32.86;;
69614;Laerm;57159;52.472;4.750;2023-02-26T00:42:33;31.85;30.85;32.74;;
69614;Laerm;57159;52.472;4.750;2023-02-26T00:42:43;31.84;30.98;32.83;;
69614;Laerm;57159;52.472;4.750;2023-02-26T00:42:54;31.83;30.95;32.79;;
69614;Laerm;57159;52.472;4.750;2023-02-26T00:43:05;31.83;30.94;32.87;;
69614;Laerm;57159;52.472;4.750;2023-02-26T00:43:19;31.86;30.93;32.79;;
69614;Laerm;57159;52.472;4.750;2023-02-26T00:43:34;31.84;30.54;32.95;;
69614;Laerm;57159;52.472;4.750;2023-02-26T00:43:47;31.84;30.74;32.78;;
69614;Laerm;57159;52.472;4.750;2023-02-26T00:43:58;31.86;30.85;32.92;;
69614;Laerm;57159;52.472;4.750;2023-02-26T00:44:08;31.84;30.71;32.90;;
69614;Laerm;57159;52.472;4.750;2023-02-26T00:44:19;31.80;30.82;33.67;;
69614;Laerm;57159;52.472;4.750;2023-02-26T00:44:29;31.84;30.77;32.67;;
69614;Laerm;57159;52.472;4.750;2023-02-26T00:44:40;31.89;30.96;32.83;;
69614;Laerm;57159;52.472;4.750;2023-02-26T00:44:50;31.85;30.81;32.97;;
69614;Laerm;57159;52.472;4.750;2023-02-26T00:45:01;31.88;31.04;32.70;;
69614;Laerm;57159;52.472;4.750;2023-02-26T00:45:11;31.85;30.13;32.62;;
69614;Laerm;57159;52.472;4.750;2023-02-26T00:45:22;31.83;30.86;32.86;;
69614;Laerm;57159;52.472;4.750;2023-02-26T00:45:44;31.87;30.79;32.95;;
69614;Laerm;57159;52.472;4.750;2023-02-26T00:46:35;31.86;30.69;32.71;;
69614;Laerm;57159;52.472;4.750;2023-02-26T00:47:28;31.83;30.69;33.34;;
69614;Laerm;57159;52.472;4.750;2023-02-26T00:49:16;31.84;30.77;32.87;;
69614;Laerm;57159;52.472;4.750;2023-02-26T00:49:42;31.83;30.84;33.12;;
69614;Laerm;57159;52.472;4.750;2023-02-26T00:50:11;31.84;30.61;32.96;;
69614;Laerm;57159;52.472;4.750;2023-02-26T00:50:23;31.85;30.68;32.82;;
69614;Laerm;57159;52.472;4.750;2023-02-26T00:50:39;31.87;30.67;32.96;;
69614;Laerm;57159;52.472;4.750;2023-02-26T00:51:11;31.84;30.85;32.89;;
69614;Laerm;57159;52.472;4.750;2023-02-26T00:51:31;31.83;30.64;32.78;;
69614;Laerm;57159;52.472;4.750;2023-02-26T00:51:54;31.81;30.65;32.72;;
69614;Laerm;57159;52.472;4.750;2023-02-26T00:52:12;31.82;30.79;32.75;;
69614;Laerm;57159;52.472;4.750;2023-02-26T00:52:35;31.82;30.78;32.81;;
69614;Laerm;57159;52.472;4.750;2023-02-26T00:53:01;31.84;30.52;32.97;;
69614;Laerm;57159;52.472;4.750;2023-02-26T00:53:24;31.83;30.75;32.98;;
69614;Laerm;57159;52.472;4.750;2023-02-26T00:53:41;31.83;30.80;33.14;;
69614;Laerm;57159;52.472;4.750;2023-02-26T00:54:28;31.81;30.55;32.83;;
69614;Laerm;57159;52.472;4.750;2023-02-26T00:54:31;31.81;30.74;32.76;;
69614;Laerm;57159;52.472;4.750;2023-02-26T00:54:41;31.81;30.70;32.65;;
69614;Laerm;57159;52.472;4.750;2023-02-26T00:54:54;31.75;30.87;32.47;;
69614;Laerm;57159;52.472;4.750;2023-02-26T00:55:05;31.82;30.78;33.14;;
69614;Laerm;57159;52.472;4.750;2023-02-26T00:55:16;31.83;30.92;32.79;;
69614;Laerm;57159;52.472;4.750;2023-02-26T00:55:26;31.78;30.65;33.02;;
69614;Laerm;57159;52.472;4.750;2023-02-26T00:55:37;31.78;30.81;32.76;;
69614;Laerm;57159;52.472;4.750;2023-02-26T00:55:50;31.82;30.79;32.59;;
69614;Laerm;57159;52.472;4.750;2023-02-26T00:56:01;31.83;30.90;32.74;;
69614;Laerm;57159;52.472;4.750;2023-02-26T00:56:12;31.83;30.79;32.63;;
69614;Laerm;57159;52.472;4.750;2023-02-26T00:56:22;31.75;30.79;32.84;;
69614;Laerm;57159;52.472;4.750;2023-02-26T00:56:32;31.80;30.85;32.72;;
69614;Laerm;57159;52.472;4.750;2023-02-26T00:56:43;31.85;30.68;32.87;;
69614;Laerm;57159;52.472;4.750;2023-02-26T00:56:54;31.78;31.04;32.98;;
69614;Laerm;57159;52.472;4.750;2023-02-26T00:57:04;31.81;30.82;32.93;;
69614;Laerm;57159;52.472;4.750;2023-02-26T00:57:16;31.81;30.77;32.61;;
69614;Laerm;57159;52.472;4.750;2023-02-26T00:57:26;31.79;30.94;32.78;;
69614;Laerm;57159;52.472;4.750;2023-02-26T00:57:37;31.79;31.02;32.61;;
69614;Laerm;57159;52.472;4.750;2023-02-26T00:57:50;31.76;30.65;32.71;;
69614;Laerm;57159;52.472;4.750;2023-02-26T00:58:01;31.80;30.82;32.85;;
69614;Laerm;57159;52.472;4.750;2023-02-26T00:58:11;31.83;30.92;32.77;;
69614;Laerm;57159;52.472;4.750;2023-02-26T00:58:26;31.80;30.69;32.89;;
69614;Laerm;57159;52.472;4.750;2023-02-26T00:58:36;31.78;30.95;32.73;;
69614;Laerm;57159;52.472;4.750;2023-02-26T00:58:46;31.79;30.94;32.62;;
69614;Laerm;57159;52.472;4.750;2023-02-26T00:58:57;31.81;30.94;32.84;;
69614;Laerm;57159;52.472;4.750;2023-02-26T00:59:07;31.77;30.85;32.67;;
69614;Laerm;57159;52.472;4.750;2023-02-26T00:59:17;31.78;30.72;32.75;;
69614;Laerm;57159;52.472;4.750;2023-02-26T00:59:28;31.78;30.71;32.66;;
69614;Laerm;57159;52.472;4.750;2023-02-26T00:59:38;31.80;30.91;32.85;;
69614;Laerm;57159;52.472;4.750;2023-02-26T00:59:48;31.80;30.90;32.75;;
69614;Laerm;57159;52.472;4.750;2023-02-26T00:59:59;31.79;30.98;32.66;;
69614;Laerm;57159;52.472;4.750;2023-02-26T01:00:09;31.79;30.80;32.57;;
69614;Laerm;57159;52.472;4.750;2023-02-26T01:00:20;31.79;30.90;32.74;;
69614;Laerm;57159;52.472;4.750;2023-02-26T01:00:31;31.81;30.80;32.62;;
69614;Laerm;57159;52.472;4.750;2023-02-26T01:00:41;31.78;30.87;32.66;;
69614;Laerm;57159;52.472;4.750;2023-02-26T01:00:51;31.82;30.97;33.02;;
69614;Laerm;57159;52.472;4.750;2023-02-26T01:01:02;31.79;30.62;32.93;;
69614;Laerm;57159;52.472;4.750;2023-02-26T01:01:12;31.80;30.86;33.01;;
69614;Laerm;57159;52.472;4.750;2023-02-26T01:01:22;31.82;30.79;32.77;;
69614;Laerm;57159;52.472;4.750;2023-02-26T01:01:32;31.79;30.84;32.76;;
69614;Laerm;57159;52.472;4.750;2023-02-26T01:01:43;31.80;30.93;32.73;;
69614;Laerm;57159;52.472;4.750;2023-02-26T01:01:53;31.81;30.61;32.85;;
69614;Laerm;57159;52.472;4.750;2023-02-26T01:02:04;31.79;30.85;32.62;;
69614;Laerm;57159;52.472;4.750;2023-02-26T01:02:14;31.77;30.78;32.83;;
69614;Laerm;57159;52.472;4.750;2023-02-26T01:02:25;31.75;30.82;32.58;;
69614;Laerm;57159;52.472;4.750;2023-02-26T01:02:36;31.82;30.74;32.85;;
69614;Laerm;57159;52.472;4.750;2023-02-26T01:02:46;31.77;30.67;32.73;;
69614;Laerm;57159;52.472;4.750;2023-02-26T01:02:57;31.74;30.64;32.52;;
69614;Laerm;57159;52.472;4.750;2023-02-26T01:03:07;31.79;30.65;32.64;;
69614;Laerm;57159;52.472;4.750;2023-02-26T01:03:18;31.82;30.94;32.69;;
69614;Laerm;57159;52.472;4.750;2023-02-26T01:03:30;31.79;30.75;32.74;;
69614;Laerm;57159;52.472;4.750;2023-02-26T01:03:40;31.76;30.80;32.73;;
69614;Laerm;57159;52.472;4.750;2023-02-26T01:03:51;31.77;30.99;32.71;;
69614;Laerm;57159;52.472;4.750;2023-02-26T01:04:01;31.77;30.74;32.66;;
69614;Laerm;57159;52.472;4.750;2023-02-26T01:04:12;31.77;30.76;32.67;;
69614;Laerm;57159;52.472;4.750;2023-02-26T01:04:22;31.76;30.71;32.65;;
69614;Laerm;57159;52.472;4.750;2023-02-26T01:04:32;31.84;30.77;32.67;;
69614;Laerm;57159;52.472;4.750;2023-02-26T01:04:43;31.83;30.61;33.04;;
69614;Laerm;57159;52.472;4.750;2023-02-26T01:04:53;31.82;30.93;32.79;;
69614;Laerm;57159;52.472;4.750;2023-02-26T01:05:05;31.79;30.72;32.96;;
69614;Laerm;57159;52.472;4.750;2023-02-26T01:05:16;31.83;30.73;32.81;;
69614;Laerm;57159;52.472;4.750;2023-02-26T01:05:26;31.82;30.97;32.75;;
69614;Laerm;57159;52.472;4.750;2023-02-26T01:05:37;31.81;30.95;32.80;;
69614;Laerm;57159;52.472;4.750;2023-02-26T01:05:47;31.76;30.84;32.66;;
69614;Laerm;57159;52.472;4.750;2023-02-26T01:06:01;31.83;30.75;32.82;;
69614;Laerm;57159;52.472;4.750;2023-02-26T01:06:12;31.78;30.96;32.95;;
69614;Laerm;57159;52.472;4.750;2023-02-26T01:06:26;31.82;30.62;32.82;;
69614;Laerm;57159;52.472;4.750;2023-02-26T01:06:42;31.79;30.79;32.71;;
69614;Laerm;57159;52.472;4.750;2023-02-26T01:06:53;31.80;30.64;32.93;;
69614;Laerm;57159;52.472;4.750;2023-02-26T01:07:04;31.81;30.51;32.64;;
69614;Laerm;57159;52.472;4.750;2023-02-26T01:07:20;31.83;30.74;33.22;;
69614;Laerm;57159;52.472;4.750;2023-02-26T01:07:36;31.80;30.62;33.03;;
69614;Laerm;57159;52.472;4.750;2023-02-26T01:08:01;31.79;30.78;32.76;;
69614;Laerm;57159;52.472;4.750;2023-02-26T01:08:16;31.81;30.76;32.67;;
69614;Laerm;57159;52.472;4.750;2023-02-26T01:08:35;31.79;30.58;32.77;;
69614;Laerm;57159;52.472;4.750;2023-02-26T01:08:53;31.78;30.65;32.94;;
69614;Laerm;57159;52.472;4.750;2023-02-26T01:09:07;31.78;30.85;32.64;;
69614;Laerm;57159;52.472;4.750;2023-02-26T01:09:33;31.81;30.92;32.89;;
69614;Laerm;57159;52.472;4.750;2023-02-26T01:09:46;31.78;30.67;32.60;;
69614;Laerm;57159;52.472;4.750;2023-02-26T01:09:59;31.79;30.76;32.76;;
69614;Laerm;57159;52.472;4.750;2023-02-26T01:10:10;31.78;30.88;32.78;;
69614;Laerm;57159;52.472;4.750;2023-02-26T01:10:21;31.80;30.96;32.83;;
69614;Laerm;57159;52.472;4.750;2023-02-26T01:10:34;31.77;30.90;32.79;;
69614;Laerm;57159;52.472;4.750;2023-02-26T01:10:48;31.79;30.85;32.54;;
69614;Laerm;57159;52.472;4.750;2023-02-26T01:11:01;31.78;30.84;33.02;;
69614;Laerm;57159;52.472;4.750;2023-02-26T01:11:12;31.81;30.93;32.87;;
69614;Laerm;57159;52.472;4.750;2023-02-26T01:11:22;31.80;30.84;32.62;;
69614;Laerm;57159;52.472;4.750;2023-02-26T01:11:34;31.80;30.86;32.77;;
69614;Laerm;57159;52.472;4.750;2023-02-26T01:11:44;31.80;30.36;32.67;;
69614;Laerm;57159;52.472;4.750;2023-02-26T01:11:56;31.80;30.77;32.66;;
69614;Laerm;57159;52.472;4.750;2023-02-26T01:12:08;31.81;30.50;32.86;;
69614;Laerm;57159;52.472;4.750;2023-02-26T01:12:20;31.77;30.81;32.85;;
69614;Laerm;57159;52.472;4.750;2023-02-26T01:12:30;31.77;30.75;32.51;;
69614;Laerm;57159;52.472;4.750;2023-02-26T01:12:41;31.77;30.75;32.70;;
69614;Laerm;57159;52.472;4.750;2023-02-26T01:12:51;31.81;30.92;32.82;;
69614;Laerm;57159;52.472;4.750;2023-02-26T01:13:02;31.78;30.63;32.65;;
69614;Laerm;57159;52.472;4.750;2023-02-26T01:13:13;31.77;30.72;33.07;;